sensor_id;sensor_type;location;lat;lon;timestamp;pressure;altitude;pressure_sealevel;temperature;humidity
53659;BME280;41524;35.624;139.698;2023-12-20T00:00:12;101077.00;;;19.87;23.79
53659;BME280;41524;35.624;139.698;2023-12-20T00:05:10;101080.00;;;13.99;26.84
53659;BME280;41524;35.624;139.698;2023-12-20T00:10:11;101067.00;;;21.58;19.94
53659;BME280;41524;35.624;139.698;2023-12-20T00:15:12;101068.00;;;12.54;28.56
53659;BME280;41524;35.624;139.698;2023-12-20T00:20:13;101065.00;;;11.72;30.48
53659;BME280;41524;35.624;139.698;2023-12-20T00:25:11;101050.00;;;11.26;31.28
53659;BME280;41524;35.624;139.698;2023-12-20T00:30:11;101046.00;;;8.87;35.14
53659;BME280;41524;35.624;139.698;2023-12-20T00:35:10;101030.00;;;8.52;36.82
53659;BME280;41524;35.624;139.698;2023-12-20T00:40:11;101027.00;;;9.39;36.02
53659;BME280;41524;35.624;139.698;2023-12-20T00:45:12;101005.00;;;10.20;35.39
53659;BME280;41524;35.624;139.698;2023-12-20T00:50:12;100986.00;;;9.92;36.12
53659;BME280;41524;35.624;139.698;2023-12-20T00:55:11;100977.00;;;10.12;35.56
53659;BME280;41524;35.624;139.698;2023-12-20T01:00:12;100956.00;;;10.71;35.52
53659;BME280;41524;35.624;139.698;2023-12-20T01:05:10;100950.00;;;9.76;35.55
53659;BME280;41524;35.624;139.698;2023-12-20T01:10:11;100945.00;;;10.62;35.67
53659;BME280;41524;35.624;139.698;2023-12-20T01:15:11;100943.00;;;12.23;35.00
53659;BME280;41524;35.624;139.698;2023-12-20T01:20:12;100930.00;;;12.22;35.03
53659;BME280;41524;35.624;139.698;2023-12-20T01:25:12;100915.00;;;12.50;34.03
53659;BME280;41524;35.624;139.698;2023-12-20T01:30:12;100904.00;;;10.98;34.72
53659;BME280;41524;35.624;139.698;2023-12-20T01:35:10;100902.00;;;11.79;34.56
53659;BME280;41524;35.624;139.698;2023-12-20T01:40:22;100890.00;;;11.98;34.44
53659;BME280;41524;35.624;139.698;2023-12-20T01:45:11;100882.00;;;12.72;33.42
53659;BME280;41524;35.624;139.698;2023-12-20T01:50:10;100867.00;;;12.23;34.28
53659;BME280;41524;35.624;139.698;2023-12-20T01:55:10;100863.00;;;12.49;33.51
53659;BME280;41524;35.624;139.698;2023-12-20T02:00:11;100854.00;;;11.76;33.83
53659;BME280;41524;35.624;139.698;2023-12-20T02:05:12;100842.00;;;13.11;33.06
53659;BME280;41524;35.624;139.698;2023-12-20T02:10:11;100829.00;;;12.79;32.65
53659;BME280;41524;35.624;139.698;2023-12-20T02:15:11;100807.00;;;12.37;32.44
53659;BME280;41524;35.624;139.698;2023-12-20T02:20:11;100792.00;;;12.53;32.22
53659;BME280;41524;35.624;139.698;2023-12-20T02:25:11;100790.00;;;13.18;31.03
53659;BME280;41524;35.624;139.698;2023-12-20T02:30:11;100794.00;;;10.36;33.11
53659;BME280;41524;35.624;139.698;2023-12-20T02:35:11;100786.00;;;13.04;30.85
53659;BME280;41524;35.624;139.698;2023-12-20T02:40:11;100774.00;;;14.13;29.16
53659;BME280;41524;35.624;139.698;2023-12-20T02:45:10;100767.00;;;13.36;30.50
53659;BME280;41524;35.624;139.698;2023-12-20T02:50:10;100766.00;;;14.54;29.32
53659;BME280;41524;35.624;139.698;2023-12-20T02:55:11;100751.00;;;14.91;29.16
53659;BME280;41524;35.624;139.698;2023-12-20T03:00:11;100733.00;;;14.44;29.74
53659;BME280;41524;35.624;139.698;2023-12-20T03:05:11;100726.00;;;14.70;28.51
53659;BME280;41524;35.624;139.698;2023-12-20T03:10:11;100718.00;;;16.80;27.24
53659;BME280;41524;35.624;139.698;2023-12-20T03:15:11;100689.00;;;20.93;24.17
53659;BME280;41524;35.624;139.698;2023-12-20T03:20:11;100689.00;;;20.41;23.36
53659;BME280;41524;35.624;139.698;2023-12-20T03:25:11;100676.00;;;21.58;22.06
53659;BME280;41524;35.624;139.698;2023-12-20T03:30:11;100677.00;;;16.32;25.26
53659;BME280;41524;35.624;139.698;2023-12-20T03:35:11;100661.00;;;20.89;21.66
53659;BME280;41524;35.624;139.698;2023-12-20T03:40:13;100650.00;;;22.24;20.31
53659;BME280;41524;35.624;139.698;2023-12-20T03:45:11;100637.00;;;20.49;20.83
53659;BME280;41524;35.624;139.698;2023-12-20T03:50:10;100626.00;;;21.05;20.09
53659;BME280;41524;35.624;139.698;2023-12-20T03:55:10;100609.00;;;21.36;19.08
53659;BME280;41524;35.624;139.698;2023-12-20T04:00:12;100602.00;;;23.57;19.17
53659;BME280;41524;35.624;139.698;2023-12-20T04:05:11;100599.00;;;19.76;22.23
53659;BME280;41524;35.624;139.698;2023-12-20T04:10:11;100613.00;;;22.07;21.88
53659;BME280;41524;35.624;139.698;2023-12-20T04:15:11;100607.00;;;18.17;24.80
53659;BME280;41524;35.624;139.698;2023-12-20T04:20:11;100603.00;;;22.30;22.31
53659;BME280;41524;35.624;139.698;2023-12-20T04:25:11;100611.00;;;18.06;26.56
53659;BME280;41524;35.624;139.698;2023-12-20T04:30:11;100606.00;;;17.73;27.29
53659;BME280;41524;35.624;139.698;2023-12-20T04:35:11;100609.00;;;22.38;23.64
53659;BME280;41524;35.624;139.698;2023-12-20T04:40:11;100601.00;;;18.13;26.45
53659;BME280;41524;35.624;139.698;2023-12-20T04:45:11;100605.00;;;13.29;32.76
53659;BME280;41524;35.624;139.698;2023-12-20T04:50:11;100614.00;;;11.90;35.29
53659;BME280;41524;35.624;139.698;2023-12-20T04:55:12;100603.00;;;12.71;33.57
53659;BME280;41524;35.624;139.698;2023-12-20T05:00:11;100611.00;;;12.05;35.17
53659;BME280;41524;35.624;139.698;2023-12-20T05:05:11;100625.00;;;9.79;38.27
53659;BME280;41524;35.624;139.698;2023-12-20T05:10:11;100629.00;;;9.98;38.52
53659;BME280;41524;35.624;139.698;2023-12-20T05:15:10;100636.00;;;12.11;37.24
53659;BME280;41524;35.624;139.698;2023-12-20T05:20:12;100647.00;;;10.66;41.17
53659;BME280;41524;35.624;139.698;2023-12-20T05:25:11;100656.00;;;8.90;42.72
53659;BME280;41524;35.624;139.698;2023-12-20T05:30:13;100655.00;;;9.40;42.90
53659;BME280;41524;35.624;139.698;2023-12-20T05:35:12;100650.00;;;10.49;41.25
53659;BME280;41524;35.624;139.698;2023-12-20T05:40:12;100650.00;;;8.42;43.25
53659;BME280;41524;35.624;139.698;2023-12-20T05:45:12;100649.00;;;10.94;38.92
53659;BME280;41524;35.624;139.698;2023-12-20T05:50:10;100663.00;;;10.27;40.51
53659;BME280;41524;35.624;139.698;2023-12-20T05:55:10;100665.00;;;10.79;39.62
53659;BME280;41524;35.624;139.698;2023-12-20T06:00:11;100675.00;;;11.15;39.33
53659;BME280;41524;35.624;139.698;2023-12-20T06:05:11;100686.00;;;11.45;38.79
53659;BME280;41524;35.624;139.698;2023-12-20T06:10:11;100686.00;;;9.93;41.07
53659;BME280;41524;35.624;139.698;2023-12-20T06:15:11;100685.00;;;10.34;41.44
53659;BME280;41524;35.624;139.698;2023-12-20T06:20:12;100686.00;;;11.00;39.62
53659;BME280;41524;35.624;139.698;2023-12-20T06:25:11;100684.00;;;10.81;39.39
53659;BME280;41524;35.624;139.698;2023-12-20T06:30:11;100683.00;;;10.23;39.83
53659;BME280;41524;35.624;139.698;2023-12-20T06:35:10;100693.00;;;11.25;39.12
53659;BME280;41524;35.624;139.698;2023-12-20T06:40:12;100690.00;;;11.50;38.76
53659;BME280;41524;35.624;139.698;2023-12-20T06:45:12;100696.00;;;9.85;40.56
53659;BME280;41524;35.624;139.698;2023-12-20T06:50:11;100697.00;;;10.76;39.92
53659;BME280;41524;35.624;139.698;2023-12-20T06:55:12;100699.00;;;11.82;38.35
53659;BME280;41524;35.624;139.698;2023-12-20T07:00:14;100687.00;;;10.06;40.29
53659;BME280;41524;35.624;139.698;2023-12-20T07:05:11;100707.00;;;9.44;41.41
53659;BME280;41524;35.624;139.698;2023-12-20T07:10:11;100712.00;;;9.84;40.92
53659;BME280;41524;35.624;139.698;2023-12-20T07:15:12;100716.00;;;9.60;40.56
53659;BME280;41524;35.624;139.698;2023-12-20T07:20:11;100722.00;;;11.03;38.39
53659;BME280;41524;35.624;139.698;2023-12-20T07:25:10;100709.00;;;10.79;39.03
53659;BME280;41524;35.624;139.698;2023-12-20T07:30:12;100712.00;;;11.02;39.07
53659;BME280;41524;35.624;139.698;2023-12-20T07:35:10;100705.00;;;10.60;40.34
53659;BME280;41524;35.624;139.698;2023-12-20T07:40:10;100704.00;;;11.00;39.37
53659;BME280;41524;35.624;139.698;2023-12-20T07:45:11;100716.00;;;11.22;39.17
53659;BME280;41524;35.624;139.698;2023-12-20T07:50:11;100712.00;;;10.92;40.05
53659;BME280;41524;35.624;139.698;2023-12-20T07:55:11;100708.00;;;11.17;40.24
53659;BME280;41524;35.624;139.698;2023-12-20T08:00:13;100720.00;;;10.59;41.19
53659;BME280;41524;35.624;139.698;2023-12-20T08:05:10;100730.00;;;10.31;41.61
53659;BME280;41524;35.624;139.698;2023-12-20T08:10:11;100733.00;;;10.54;41.41
53659;BME280;41524;35.624;139.698;2023-12-20T08:15:11;100734.00;;;10.75;40.77
53659;BME280;41524;35.624;139.698;2023-12-20T08:20:11;100740.00;;;11.01;40.44
53659;BME280;41524;35.624;139.698;2023-12-20T08:25:12;100754.00;;;10.62;40.81
53659;BME280;41524;35.624;139.698;2023-12-20T08:30:12;100758.00;;;10.41;40.64
53659;BME280;41524;35.624;139.698;2023-12-20T08:35:12;100759.00;;;9.18;42.72
53659;BME280;41524;35.624;139.698;2023-12-20T08:40:11;100768.00;;;9.94;42.30
53659;BME280;41524;35.624;139.698;2023-12-20T08:45:12;100771.00;;;11.10;40.86
53659;BME280;41524;35.624;139.698;2023-12-20T08:50:11;100769.00;;;10.68;42.18
53659;BME280;41524;35.624;139.698;2023-12-20T08:55:10;100759.00;;;10.34;42.67
53659;BME280;41524;35.624;139.698;2023-12-20T09:00:12;100755.00;;;10.65;42.65
53659;BME280;41524;35.624;139.698;2023-12-20T09:05:11;100744.00;;;10.60;43.21
53659;BME280;41524;35.624;139.698;2023-12-20T09:10:11;100745.00;;;9.63;45.88
53659;BME280;41524;35.624;139.698;2023-12-20T09:15:11;100734.00;;;10.25;45.30
53659;BME280;41524;35.624;139.698;2023-12-20T09:20:11;100740.00;;;10.31;45.95
53659;BME280;41524;35.624;139.698;2023-12-20T09:25:12;100754.00;;;10.59;45.60
53659;BME280;41524;35.624;139.698;2023-12-20T09:30:13;100757.00;;;10.09;46.65
53659;BME280;41524;35.624;139.698;2023-12-20T09:35:15;100752.00;;;10.54;45.50
53659;BME280;41524;35.624;139.698;2023-12-20T09:40:50;100746.00;;;9.21;49.05
53659;BME280;41524;35.624;139.698;2023-12-20T09:45:10;100750.00;;;9.82;48.85
53659;BME280;41524;35.624;139.698;2023-12-20T09:50:11;100762.00;;;10.21;48.55
53659;BME280;41524;35.624;139.698;2023-12-20T09:55:12;100755.00;;;10.37;47.45
53659;BME280;41524;35.624;139.698;2023-12-20T10:00:13;100752.00;;;9.59;49.22
53659;BME280;41524;35.624;139.698;2023-12-20T10:05:17;100756.00;;;10.33;48.75
53659;BME280;41524;35.624;139.698;2023-12-20T10:10:12;100764.00;;;9.78;50.34
53659;BME280;41524;35.624;139.698;2023-12-20T10:15:11;100753.00;;;10.00;50.03
53659;BME280;41524;35.624;139.698;2023-12-20T10:20:12;100749.00;;;8.41;54.27
53659;BME280;41524;35.624;139.698;2023-12-20T10:25:12;100747.00;;;9.20;53.50
53659;BME280;41524;35.624;139.698;2023-12-20T10:30:12;100741.00;;;9.09;53.31
53659;BME280;41524;35.624;139.698;2023-12-20T10:35:11;100744.00;;;9.71;52.92
53659;BME280;41524;35.624;139.698;2023-12-20T10:40:13;100752.00;;;9.51;52.42
53659;BME280;41524;35.624;139.698;2023-12-20T10:45:11;100780.00;;;9.23;52.98
53659;BME280;41524;35.624;139.698;2023-12-20T10:50:11;100782.00;;;9.84;52.49
53659;BME280;41524;35.624;139.698;2023-12-20T10:55:12;100800.00;;;9.35;53.12
53659;BME280;41524;35.624;139.698;2023-12-20T11:00:15;100798.00;;;9.58;52.61
53659;BME280;41524;35.624;139.698;2023-12-20T11:05:25;100808.00;;;9.54;52.99
53659;BME280;41524;35.624;139.698;2023-12-20T11:10:19;100806.00;;;9.52;52.83
53659;BME280;41524;35.624;139.698;2023-12-20T11:15:12;100808.00;;;8.92;53.96
53659;BME280;41524;35.624;139.698;2023-12-20T11:20:12;100812.00;;;9.14;53.95
53659;BME280;41524;35.624;139.698;2023-12-20T11:25:16;100816.00;;;9.26;54.12
53659;BME280;41524;35.624;139.698;2023-12-20T11:30:13;100817.00;;;9.60;53.30
53659;BME280;41524;35.624;139.698;2023-12-20T11:35:27;100811.00;;;9.49;53.69
53659;BME280;41524;35.624;139.698;2023-12-20T11:40:14;100806.00;;;9.85;53.24
53659;BME280;41524;35.624;139.698;2023-12-20T11:45:12;100804.00;;;9.30;53.58
53659;BME280;41524;35.624;139.698;2023-12-20T11:50:12;100802.00;;;8.96;54.67
53659;BME280;41524;35.624;139.698;2023-12-20T11:55:10;100804.00;;;8.93;55.07
53659;BME280;41524;35.624;139.698;2023-12-20T12:00:11;100804.00;;;8.90;54.84
53659;BME280;41524;35.624;139.698;2023-12-20T12:05:11;100797.00;;;9.02;54.84
53659;BME280;41524;35.624;139.698;2023-12-20T12:10:10;100798.00;;;9.10;54.77
53659;BME280;41524;35.624;139.698;2023-12-20T12:15:11;100797.00;;;9.12;55.18
53659;BME280;41524;35.624;139.698;2023-12-20T12:20:11;100798.00;;;8.73;55.86
53659;BME280;41524;35.624;139.698;2023-12-20T12:25:13;100783.00;;;8.01;56.95
53659;BME280;41524;35.624;139.698;2023-12-20T12:30:11;100780.00;;;9.00;55.43
53659;BME280;41524;35.624;139.698;2023-12-20T12:35:10;100779.00;;;8.14;56.54
53659;BME280;41524;35.624;139.698;2023-12-20T12:40:13;100784.00;;;8.98;54.93
53659;BME280;41524;35.624;139.698;2023-12-20T12:45:12;100779.00;;;8.50;55.34
53659;BME280;41524;35.624;139.698;2023-12-20T12:50:11;100788.00;;;8.37;54.62
53659;BME280;41524;35.624;139.698;2023-12-20T12:55:10;100783.00;;;8.51;52.86
53659;BME280;41524;35.624;139.698;2023-12-20T13:00:12;100800.00;;;8.34;53.75
53659;BME280;41524;35.624;139.698;2023-12-20T13:05:10;100792.00;;;7.98;52.96
53659;BME280;41524;35.624;139.698;2023-12-20T13:10:11;100800.00;;;8.36;51.87
53659;BME280;41524;35.624;139.698;2023-12-20T13:15:11;100813.00;;;8.60;50.69
53659;BME280;41524;35.624;139.698;2023-12-20T13:20:11;100824.00;;;8.45;50.79
53659;BME280;41524;35.624;139.698;2023-12-20T13:25:11;100825.00;;;9.14;49.44
53659;BME280;41524;35.624;139.698;2023-12-20T13:30:11;100818.00;;;8.61;50.21
53659;BME280;41524;35.624;139.698;2023-12-20T13:35:11;100813.00;;;8.63;50.15
53659;BME280;41524;35.624;139.698;2023-12-20T13:40:11;100803.00;;;8.31;50.36
53659;BME280;41524;35.624;139.698;2023-12-20T13:45:12;100802.00;;;7.69;51.50
53659;BME280;41524;35.624;139.698;2023-12-20T13:50:11;100796.00;;;7.91;50.61
53659;BME280;41524;35.624;139.698;2023-12-20T13:55:11;100801.00;;;8.32;50.70
53659;BME280;41524;35.624;139.698;2023-12-20T14:05:11;100789.00;;;8.05;50.50
53659;BME280;41524;35.624;139.698;2023-12-20T14:10:12;100803.00;;;7.92;49.84
53659;BME280;41524;35.624;139.698;2023-12-20T14:15:11;100802.00;;;7.35;50.10
53659;BME280;41524;35.624;139.698;2023-12-20T14:20:11;100804.00;;;8.39;49.63
53659;BME280;41524;35.624;139.698;2023-12-20T14:25:11;100813.00;;;7.48;50.00
53659;BME280;41524;35.624;139.698;2023-12-20T14:30:12;100812.00;;;6.59;51.53
53659;BME280;41524;35.624;139.698;2023-12-20T14:35:12;100822.00;;;8.10;48.32
53659;BME280;41524;35.624;139.698;2023-12-20T14:40:12;100805.00;;;7.91;47.21
53659;BME280;41524;35.624;139.698;2023-12-20T14:45:11;100788.00;;;8.22;46.80
53659;BME280;41524;35.624;139.698;2023-12-20T14:50:12;100797.00;;;7.17;48.38
53659;BME280;41524;35.624;139.698;2023-12-20T14:55:12;100779.00;;;7.41;47.10
53659;BME280;41524;35.624;139.698;2023-12-20T15:00:11;100801.00;;;7.10;48.75
53659;BME280;41524;35.624;139.698;2023-12-20T15:05:10;100788.00;;;7.55;46.82
53659;BME280;41524;35.624;139.698;2023-12-20T15:10:11;100770.00;;;7.03;47.97
53659;BME280;41524;35.624;139.698;2023-12-20T15:15:11;100788.00;;;6.04;48.94
53659;BME280;41524;35.624;139.698;2023-12-20T15:20:11;100755.00;;;6.38;48.84
53659;BME280;41524;35.624;139.698;2023-12-20T15:25:11;100777.00;;;6.16;48.23
53659;BME280;41524;35.624;139.698;2023-12-20T15:30:12;100776.00;;;7.20;46.88
53659;BME280;41524;35.624;139.698;2023-12-20T15:35:11;100779.00;;;6.97;47.82
53659;BME280;41524;35.624;139.698;2023-12-20T15:40:12;100797.00;;;6.28;49.33
53659;BME280;41524;35.624;139.698;2023-12-20T15:45:11;100756.00;;;5.74;49.55
53659;BME280;41524;35.624;139.698;2023-12-20T15:50:13;100768.00;;;6.60;48.63
53659;BME280;41524;35.624;139.698;2023-12-20T15:55:11;100778.00;;;5.80;50.19
53659;BME280;41524;35.624;139.698;2023-12-20T16:00:11;100753.00;;;6.40;48.97
53659;BME280;41524;35.624;139.698;2023-12-20T16:05:10;100764.00;;;6.46;49.23
53659;BME280;41524;35.624;139.698;2023-12-20T16:10:11;100765.00;;;5.78;50.80
53659;BME280;41524;35.624;139.698;2023-12-20T16:15:32;100747.00;;;6.50;49.67
53659;BME280;41524;35.624;139.698;2023-12-20T16:20:11;100742.00;;;6.96;48.86
53659;BME280;41524;35.624;139.698;2023-12-20T16:25:11;100746.00;;;6.69;50.08
53659;BME280;41524;35.624;139.698;2023-12-20T16:30:11;100744.00;;;5.82;50.91
53659;BME280;41524;35.624;139.698;2023-12-20T16:35:11;100738.00;;;6.11;51.00
53659;BME280;41524;35.624;139.698;2023-12-20T16:40:26;100737.00;;;5.73;51.18
53659;BME280;41524;35.624;139.698;2023-12-20T16:45:10;100736.00;;;5.93;50.22
53659;BME280;41524;35.624;139.698;2023-12-20T16:50:10;100729.00;;;6.25;49.54
53659;BME280;41524;35.624;139.698;2023-12-20T16:55:13;100725.00;;;6.49;48.42
53659;BME280;41524;35.624;139.698;2023-12-20T17:00:11;100723.00;;;5.61;49.57
53659;BME280;41524;35.624;139.698;2023-12-20T17:05:11;100727.00;;;5.38;50.17
53659;BME280;41524;35.624;139.698;2023-12-20T17:10:11;100725.00;;;5.92;49.43
53659;BME280;41524;35.624;139.698;2023-12-20T17:15:11;100727.00;;;5.09;49.82
53659;BME280;41524;35.624;139.698;2023-12-20T17:20:11;100722.00;;;5.09;49.33
53659;BME280;41524;35.624;139.698;2023-12-20T17:25:11;100723.00;;;4.88;49.40
53659;BME280;41524;35.624;139.698;2023-12-20T17:30:12;100727.00;;;5.33;49.07
53659;BME280;41524;35.624;139.698;2023-12-20T17:35:11;100730.00;;;4.91;50.84
53659;BME280;41524;35.624;139.698;2023-12-20T17:40:11;100739.00;;;5.39;51.03
53659;BME280;41524;35.624;139.698;2023-12-20T17:45:11;100742.00;;;4.90;52.64
53659;BME280;41524;35.624;139.698;2023-12-20T17:50:11;100749.00;;;4.58;53.97
53659;BME280;41524;35.624;139.698;2023-12-20T17:55:11;100750.00;;;4.69;53.58
53659;BME280;41524;35.624;139.698;2023-12-20T18:00:15;100754.00;;;4.74;53.75
53659;BME280;41524;35.624;139.698;2023-12-20T18:05:11;100755.00;;;4.53;54.68
53659;BME280;41524;35.624;139.698;2023-12-20T18:10:10;100752.00;;;5.06;53.61
53659;BME280;41524;35.624;139.698;2023-12-20T18:15:12;100750.00;;;5.86;51.72
53659;BME280;41524;35.624;139.698;2023-12-20T18:20:12;100743.00;;;6.81;48.51
53659;BME280;41524;35.624;139.698;2023-12-20T18:25:11;100737.00;;;6.26;48.40
53659;BME280;41524;35.624;139.698;2023-12-20T18:30:17;100745.00;;;4.94;47.75
53659;BME280;41524;35.624;139.698;2023-12-20T18:35:11;100737.00;;;5.22;45.66
53659;BME280;41524;35.624;139.698;2023-12-20T18:40:11;100732.00;;;5.22;45.41
53659;BME280;41524;35.624;139.698;2023-12-20T18:45:11;100735.00;;;5.31;44.75
53659;BME280;41524;35.624;139.698;2023-12-20T18:50:10;100732.00;;;5.69;43.81
53659;BME280;41524;35.624;139.698;2023-12-20T18:55:10;100737.00;;;5.58;43.23
53659;BME280;41524;35.624;139.698;2023-12-20T19:00:43;100734.00;;;6.19;42.18
53659;BME280;41524;35.624;139.698;2023-12-20T19:05:11;100742.00;;;5.64;42.10
53659;BME280;41524;35.624;139.698;2023-12-20T19:10:11;100739.00;;;6.46;40.32
53659;BME280;41524;35.624;139.698;2023-12-20T19:15:12;100739.00;;;6.24;40.30
53659;BME280;41524;35.624;139.698;2023-12-20T19:20:11;100741.00;;;5.97;39.80
53659;BME280;41524;35.624;139.698;2023-12-20T19:25:11;100748.00;;;5.07;40.16
53659;BME280;41524;35.624;139.698;2023-12-20T19:30:13;100756.00;;;5.58;39.60
53659;BME280;41524;35.624;139.698;2023-12-20T19:35:12;100759.00;;;5.14;39.25
53659;BME280;41524;35.624;139.698;2023-12-20T19:40:12;100757.00;;;5.00;39.19
53659;BME280;41524;35.624;139.698;2023-12-20T19:45:12;100757.00;;;4.94;39.53
53659;BME280;41524;35.624;139.698;2023-12-20T19:50:11;100756.00;;;5.46;38.68
53659;BME280;41524;35.624;139.698;2023-12-20T19:55:13;100758.00;;;5.36;38.71
53659;BME280;41524;35.624;139.698;2023-12-20T20:00:12;100753.00;;;6.07;37.73
53659;BME280;41524;35.624;139.698;2023-12-20T20:05:10;100759.00;;;6.13;37.43
53659;BME280;41524;35.624;139.698;2023-12-20T20:10:12;100770.00;;;4.87;39.30
53659;BME280;41524;35.624;139.698;2023-12-20T20:15:11;100775.00;;;4.55;39.96
53659;BME280;41524;35.624;139.698;2023-12-20T20:20:11;100772.00;;;4.59;40.12
53659;BME280;41524;35.624;139.698;2023-12-20T20:25:11;100774.00;;;4.19;40.89
53659;BME280;41524;35.624;139.698;2023-12-20T20:30:11;100780.00;;;4.37;40.71
53659;BME280;41524;35.624;139.698;2023-12-20T20:35:12;100786.00;;;4.41;40.00
53659;BME280;41524;35.624;139.698;2023-12-20T20:40:12;100789.00;;;4.71;39.68
53659;BME280;41524;35.624;139.698;2023-12-20T20:45:11;100789.00;;;5.26;39.73
53659;BME280;41524;35.624;139.698;2023-12-20T20:50:11;100800.00;;;4.94;39.08
53659;BME280;41524;35.624;139.698;2023-12-20T20:55:11;100800.00;;;4.99;39.12
53659;BME280;41524;35.624;139.698;2023-12-20T21:00:16;100798.00;;;4.60;39.21
53659;BME280;41524;35.624;139.698;2023-12-20T21:05:11;100794.00;;;4.94;38.59
53659;BME280;41524;35.624;139.698;2023-12-20T21:10:11;100802.00;;;4.29;39.55
53659;BME280;41524;35.624;139.698;2023-12-20T21:15:11;100816.00;;;4.43;39.05
53659;BME280;41524;35.624;139.698;2023-12-20T21:20:12;100816.00;;;4.16;39.22
53659;BME280;41524;35.624;139.698;2023-12-20T21:25:11;100819.00;;;4.33;39.47
53659;BME280;41524;35.624;139.698;2023-12-20T21:30:11;100811.00;;;4.22;38.82
53659;BME280;41524;35.624;139.698;2023-12-20T21:35:11;100806.00;;;4.13;38.66
53659;BME280;41524;35.624;139.698;2023-12-20T21:40:12;100806.00;;;4.05;38.57
53659;BME280;41524;35.624;139.698;2023-12-20T21:45:12;100809.00;;;3.96;38.62
53659;BME280;41524;35.624;139.698;2023-12-20T21:50:16;100811.00;;;4.39;39.37
53659;BME280;41524;35.624;139.698;2023-12-20T21:55:12;100816.00;;;5.19;37.67
53659;BME280;41524;35.624;139.698;2023-12-20T22:00:18;100825.00;;;5.77;38.47
53659;BME280;41524;35.624;139.698;2023-12-20T22:05:11;100827.00;;;5.63;37.95
53659;BME280;41524;35.624;139.698;2023-12-20T22:10:11;100819.00;;;6.87;37.23
53659;BME280;41524;35.624;139.698;2023-12-20T22:15:12;100834.00;;;5.31;38.81
53659;BME280;41524;35.624;139.698;2023-12-20T22:20:12;100832.00;;;6.28;36.92
53659;BME280;41524;35.624;139.698;2023-12-20T22:25:11;100839.00;;;6.45;37.04
53659;BME280;41524;35.624;139.698;2023-12-20T22:30:12;100837.00;;;6.95;36.11
53659;BME280;41524;35.624;139.698;2023-12-20T22:35:11;100841.00;;;6.44;36.85
53659;BME280;41524;35.624;139.698;2023-12-20T22:40:12;100832.00;;;5.96;36.44
53659;BME280;41524;35.624;139.698;2023-12-20T22:45:10;100833.00;;;5.99;37.58
53659;BME280;41524;35.624;139.698;2023-12-20T22:50:11;100834.00;;;6.69;36.53
53659;BME280;41524;35.624;139.698;2023-12-20T22:55:11;100832.00;;;12.62;29.58
53659;BME280;41524;35.624;139.698;2023-12-20T23:00:12;100830.00;;;15.18;24.84
53659;BME280;41524;35.624;139.698;2023-12-20T23:05:11;100842.00;;;13.68;25.27
53659;BME280;41524;35.624;139.698;2023-12-20T23:10:11;100844.00;;;14.12;24.07
53659;BME280;41524;35.624;139.698;2023-12-20T23:15:11;100844.00;;;15.59;23.07
53659;BME280;41524;35.624;139.698;2023-12-20T23:20:11;100849.00;;;16.26;21.21
53659;BME280;41524;35.624;139.698;2023-12-20T23:25:11;100857.00;;;18.16;20.03
53659;BME280;41524;35.624;139.698;2023-12-20T23:30:11;100860.00;;;17.24;20.16
53659;BME280;41524;35.624;139.698;2023-12-20T23:35:11;100866.00;;;14.01;21.81
53659;BME280;41524;35.624;139.698;2023-12-20T23:40:12;100857.00;;;18.34;19.26
53659;BME280;41524;35.624;139.698;2023-12-20T23:45:11;100852.00;;;15.67;20.51
53659;BME280;41524;35.624;139.698;2023-12-20T23:50:12;100848.00;;;17.76;18.74
53659;BME280;41524;35.624;139.698;2023-12-20T23:55:11;100849.00;;;19.14;17.56
